Ana Sayfa
METAR-TAF:

METAR-TAF

Havaalanları :

Bedford, Pensilvanya, Amerika Birleşik Devletleri

Enlem: 40-05-10N, Boylam: 078-30-49W, yükseklik: 354 m

Güncel hava durumu gözlemi

Rapor saat 06:50 UTC de 29 dakika önce yapıldı.
Rüzgar batı/kuzeybatıdan 9 kt ve 18 kt'a kadar ani rüzgarlar
Sıcaklık -5°C
Nem 49%
Basınç 1012 hPa
Görüş mesafesi: 16.1 km
4200 ft yükseklikte parçalı çok bulutlu

METAR: KHMZ 290650Z AUTO 30009G18KT 10SM BKN042 M05/M14 A2988 RMK AO2 T10551138

Saat: 02:19 (07:19 UTC)


TAF: eksik

4.000'den fazla havaalanı için hava durumu gözlemleri ve tahminleri (METAR ve TAF raporları).

Kullanılabilir istasyonlar harita üzerinde sarı ve kırmızı noktalarla gösterilir.

İstasyonun adını görmek için fareyi noktanın üzerinde gezdirin.

Sonrasında hava gözlem ve tahminlerini görmek için tıklayın.

Haritayı değiştirmek için: yaklaştırmak için siyah artı işaretli yeşil düğmeye ve uzaklaştırmak için de eksi işaretli düğmeye hızla tıklayın; bitişik haritalar için yeşil okları kullanın.


METAR-TAF: